Time;durP1;ratioP1;P1;durP2;ratioP2;P2;SDS_P1;SDS_P2;PMS_P1;PMS_P2;Temp;Humidity;BMP_temperature;BMP_pressure;BME280_temperature;BME280_humidity;BME280_pressure;Samples;Min_cycle;Max_cycle;Signal;HPM_P1;HPM_P2
2022/10/07 00:01:19;;;;;;;4.30;3.63;;;;;14.60;100051.00;;;;16452684;28;20223;-75
2022/10/07 00:09:24;;;;;;;8.23;4.20;;;;;14.70;100042.00;;;;16454051;28;20294;-75
2022/10/07 00:17:26;;;;;;;16.00;5.77;;;;;14.60;100041.00;;;;16451986;28;20242;-75
2022/10/07 00:25:30;;;;;;;9.17;4.37;;;;;14.90;100028.00;;;;16468583;28;20643;-74
2022/10/07 00:33:34;;;;;;;5.57;4.97;;;;;14.80;100030.00;;;;16465555;28;20318;-75
2022/10/07 00:41:39;;;;;;;4.53;4.10;;;;;15.30;100002.00;;;;16461261;28;20697;-75
2022/10/07 00:49:45;;;;;;;7.47;4.07;;;;;15.20;99998.00;;;;16466443;28;20715;-74
2022/10/07 00:57:49;;;;;;;4.83;3.93;;;;;15.10;99991.00;;;;16472504;28;20315;-73
2022/10/07 01:05:52;;;;;;;6.10;4.00;;;;;15.70;99978.00;;;;16463930;28;20695;-74
2022/10/07 01:14:04;;;;;;;5.80;3.83;;;;;15.30;99970.00;;;;16461173;28;20232;-74
2022/10/07 01:22:19;;;;;;;8.10;4.20;;;;;15.50;99967.00;;;;16454594;28;20227;-75
2022/10/07 01:30:23;;;;;;;6.30;3.70;;;;;15.10;99961.00;;;;16456527;28;20218;-74
2022/10/07 01:38:26;;;;;;;7.10;4.03;;;;;15.20;99952.00;;;;16472888;28;20641;-74
2022/10/07 01:46:34;;;;;;;10.13;5.27;;;;;15.30;99939.00;;;;16459606;28;20206;-75
2022/10/07 01:54:50;;;;;;;7.33;3.50;;;;;15.50;99938.00;;;;16455601;28;20238;-74
2022/10/07 02:03:16;;;;;;;9.70;5.13;;;;;15.40;99932.00;;;;16459518;28;20717;-74
2022/10/07 02:11:21;;;;;;;4.87;4.10;;;;;15.50;99927.00;;;;16458253;28;20801;-75
2022/10/07 02:19:33;;;;;;;4.63;3.50;;;;;15.60;99917.00;;;;16460549;28;20233;-74
2022/10/07 02:27:37;;;;;;;5.73;3.63;;;;;15.40;99903.00;;;;16458996;28;20224;-73
2022/10/07 02:35:46;;;;;;;6.53;4.00;;;;;15.90;99896.00;;;;16450786;28;20239;-76
2022/10/07 02:43:55;;;;;;;7.90;3.80;;;;;15.70;99890.00;;;;16465751;28;20873;-74
2022/10/07 02:52:01;;;;;;;6.10;3.80;;;;;15.90;99886.00;;;;16457976;28;20323;-75
2022/10/07 03:00:07;;;;;;;5.10;3.90;;;;;15.40;99878.00;;;;16457151;28;20774;-75
2022/10/07 03:08:18;;;;;;;8.10;4.80;;;;;15.30;99872.00;;;;16453267;28;20267;-75
2022/10/07 03:16:21;;;;;;;3.93;3.53;;;;;15.50;99867.00;;;;16455357;28;20715;-76
2022/10/07 03:24:27;;;;;;;5.40;4.57;;;;;15.60;99866.00;;;;16454947;28;20209;-75
2022/10/07 03:32:29;;;;;;;9.70;4.10;;;;;15.80;99852.00;;;;16453357;28;20228;-76
2022/10/07 03:40:34;;;;;;;4.70;3.90;;;;;16.00;99845.00;;;;16467466;28;20228;-76
2022/10/07 03:48:37;;;;;;;6.80;4.13;;;;;15.50;99841.00;;;;16450732;28;20351;-75
2022/10/07 03:56:41;;;;;;;5.67;4.20;;;;;15.20;99841.00;;;;16467329;28;20723;-75
2022/10/07 04:04:44;;;;;;;4.67;4.23;;;;;15.80;99842.00;;;;16447450;28;20303;-75
2022/10/07 04:12:48;;;;;;;8.97;4.40;;;;;16.00;99827.00;;;;16450800;28;20259;-75
2022/10/07 04:20:51;;;;;;;5.80;4.10;;;;;15.70;99820.00;;;;16449296;28;20314;-75
2022/10/07 04:28:55;;;;;;;6.30;4.30;;;;;15.90;99818.00;;;;16449648;28;20217;-76
2022/10/07 04:36:59;;;;;;;7.00;4.60;;;;;15.60;99800.00;;;;16445088;28;20359;-75
2022/10/07 04:45:04;;;;;;;5.53;5.03;;;;;15.50;99796.00;;;;16459783;28;20228;-75
2022/10/07 04:53:13;;;;;;;5.23;4.60;;;;;15.70;99791.00;;;;16448556;28;20228;-75
2022/10/07 05:01:17;;;;;;;4.87;4.20;;;;;15.80;99790.00;;;;16464228;28;20232;-73
2022/10/07 05:09:22;;;;;;;5.77;4.10;;;;;15.80;99784.00;;;;16458666;28;20722;-75
2022/10/07 05:17:26;;;;;;;7.20;4.80;;;;;15.40;99784.00;;;;16482220;28;20232;-74
2022/10/07 05:25:29;;;;;;;8.00;4.63;;;;;15.80;99782.00;;;;16472204;28;20204;-73
2022/10/07 05:33:33;;;;;;;7.37;4.67;;;;;16.10;99774.00;;;;16470890;28;20220;-78
2022/10/07 05:41:36;;;;;;;10.63;6.90;;;;;16.00;99775.00;;;;16452283;28;21001;-75
2022/10/07 05:49:40;;;;;;;7.10;5.90;;;;;16.10;99765.00;;;;16451007;28;20239;-74
2022/10/07 05:57:43;;;;;;;12.73;5.43;;;;;15.30;99777.00;;;;16460587;28;20236;-73
2022/10/07 06:05:47;;;;;;;6.73;4.97;;;;;16.10;99774.00;;;;16449599;28;20221;-75
2022/10/07 06:13:51;;;;;;;9.40;4.87;;;;;15.50;99770.00;;;;16449094;28;20667;-72
2022/10/07 06:21:56;;;;;;;9.50;5.37;;;;;16.40;99762.00;;;;16450781;28;20243;-73
2022/10/07 06:29:58;;;;;;;8.20;6.20;;;;;16.80;99755.00;;;;16452717;28;20224;-73
2022/10/07 06:38:04;;;;;;;10.63;7.90;;;;;17.20;99760.00;;;;16469360;28;20315;-78
2022/10/07 06:46:09;;;;;;;19.00;9.57;;;;;17.30;99754.00;;;;16455669;28;20682;-74
2022/10/07 06:54:15;;;;;;;12.00;6.83;;;;;17.30;99750.00;;;;16461324;28;20279;-75
2022/10/07 07:02:19;;;;;;;12.00;7.80;;;;;17.50;99759.00;;;;16450280;28;20232;-76
2022/10/07 07:10:24;;;;;;;10.90;7.87;;;;;17.70;99748.00;;;;16467417;28;20724;-73
2022/10/07 07:18:29;;;;;;;11.70;8.00;;;;;18.10;99746.00;;;;16457891;28;20240;-73
2022/10/07 07:26:33;;;;;;;11.77;7.73;;;;;18.30;99739.00;;;;16465365;28;20204;-73
2022/10/07 07:34:37;;;;;;;11.43;7.70;;;;;18.30;99734.00;;;;16450480;28;20239;-71
2022/10/07 07:42:43;;;;;;;12.70;9.30;;;;;18.40;99740.00;;;;16442389;28;20320;-73
2022/10/07 07:50:45;;;;;;;9.93;7.23;;;;;18.50;99729.00;;;;16442822;28;20428;-75
2022/10/07 07:58:49;;;;;;;10.77;6.93;;;;;18.90;99728.00;;;;16442420;28;20240;-74
2022/10/07 08:06:52;;;;;;;7.20;6.50;;;;;19.00;99727.00;;;;16441652;28;20201;-75
2022/10/07 08:14:57;;;;;;;13.23;7.20;;;;;19.30;99717.00;;;;16468637;28;20784;-76
2022/10/07 08:23:01;;;;;;;19.43;15.20;;;;;19.80;99708.00;;;;16432042;28;20227;-75
2022/10/07 08:31:07;;;;;;;9.50;6.97;;;;;20.20;99704.00;;;;16446234;28;20295;-75
2022/10/07 08:39:10;;;;;;;8.13;6.17;;;;;20.20;99699.00;;;;16442391;28;20229;-76
2022/10/07 08:47:21;;;;;;;7.50;4.60;;;;;20.60;99697.00;;;;16466920;28;20279;-74
2022/10/07 08:55:30;;;;;;;5.50;3.60;;;;;20.70;99677.00;;;;16485653;22;20332;-47
2022/10/07 09:03:40;;;;;;;8.17;4.30;;;;;20.50;99672.00;;;;16452733;28;20363;-48
2022/10/07 09:11:45;;;;;;;5.60;4.17;;;;;20.90;99669.00;;;;16461606;28;20220;-47
2022/10/07 09:19:52;;;;;;;5.53;4.50;;;;;21.40;99665.00;;;;16457200;28;20689;-47
2022/10/07 09:27:54;;;;;;;5.50;4.00;;;;;21.50;99661.00;;;;16466791;28;20212;-47
2022/10/07 09:36:05;;;;;;;5.43;4.53;;;;;21.70;99652.00;;;;16464336;28;20373;-47
2022/10/07 09:44:20;;;;;;;8.57;5.73;;;;;21.80;99643.00;;;;16462574;28;20221;-47
2022/10/07 09:52:25;;;;;;;7.37;5.40;;;;;22.50;99647.00;;;;16454959;28;20266;-47
2022/10/07 10:00:29;;;;;;;9.43;6.67;;;;;22.60;99637.00;;;;16458310;28;20231;-47
2022/10/07 10:08:34;;;;;;;8.10;6.50;;;;;23.00;99624.00;;;;16460616;28;20836;-48
2022/10/07 10:16:39;;;;;;;13.73;7.10;;;;;23.20;99621.00;;;;16455281;28;20287;-48
2022/10/07 10:33:23;;;;;;;9.33;7.03;;;;;24.40;99602.00;;;;16454224;28;20221;-48
2022/10/07 10:41:32;;;;;;;7.40;6.63;;;;;24.10;99592.00;;;;16455058;28;20228;-47
2022/10/07 10:49:38;;;;;;;7.50;6.10;;;;;24.20;99588.00;;;;16453319;28;20205;-47
2022/10/07 10:57:51;;;;;;;6.83;6.13;;;;;25.10;99570.00;;;;16455456;28;20228;-47
2022/10/07 11:05:54;;;;;;;6.10;5.50;;;;;24.70;99563.00;;;;16459885;28;20228;-48
2022/10/07 11:14:01;;;;;;;8.43;6.67;;;;;25.00;99561.00;;;;16464184;28;20227;-48
2022/10/07 11:22:04;;;;;;;8.70;6.90;;;;;25.60;99549.00;;;;16453846;28;20236;-47
2022/10/07 11:30:38;;;;;;;8.20;7.50;;;;;25.20;99533.00;;;;16455238;28;20196;-48
2022/10/07 11:38:42;;;;;;;11.53;7.90;;;;;24.80;99521.00;;;;16455999;28;20217;-49
2022/10/07 11:46:47;;;;;;;8.03;5.00;;;;;25.80;99517.00;;;;16450918;28;20204;-48
2022/10/07 11:54:53;;;;;;;7.17;6.47;;;;;25.90;99504.00;;;;16456167;28;20243;-49
2022/10/07 12:02:58;;;;;;;8.07;7.27;;;;;25.80;99494.00;;;;16446302;28;20238;-49
2022/10/07 12:11:44;;;;;;;6.50;5.90;;;;;26.10;99472.00;;;;16445328;28;20189;-49
2022/10/07 12:19:50;;;;;;;7.60;5.30;;;;;26.70;99467.00;;;;16463489;28;20235;-48
2022/10/07 12:27:53;;;;;;;5.80;5.30;;;;;26.50;99454.00;;;;16465530;28;20224;-49
2022/10/07 12:35:56;;;;;;;7.03;5.50;;;;;26.60;99458.00;;;;16457079;28;20286;-48
2022/10/07 12:44:05;;;;;;;6.43;5.90;;;;;26.90;99445.00;;;;16460784;28;20878;-48
2022/10/07 12:52:13;;;;;;;8.27;6.57;;;;;26.90;99443.00;;;;16462885;28;20233;-49
2022/10/07 13:00:17;;;;;;;6.30;5.70;;;;;27.20;99438.00;;;;16467247;28;20216;-48
2022/10/07 13:08:46;;;;;;;6.23;5.63;;;;;27.30;99423.00;;;;16479744;28;20218;-48
2022/10/07 13:16:53;;;;;;;7.63;6.13;;;;;27.40;99417.00;;;;16471351;28;20672;-48
2022/10/07 13:24:59;;;;;;;6.17;5.07;;;;;27.60;99397.00;;;;16461597;28;20216;-49
2022/10/07 13:33:14;;;;;;;9.83;5.60;;;;;27.60;99384.00;;;;16464566;28;20224;-49
2022/10/07 13:41:25;;;;;;;5.60;5.10;;;;;27.70;99382.00;;;;16463570;28;20236;-48
2022/10/07 13:49:29;;;;;;;5.67;4.90;;;;;27.50;99371.00;;;;16463102;28;20200;-49
2022/10/07 13:57:40;;;;;;;6.37;5.83;;;;;26.80;99371.00;;;;16460143;28;20224;-49
2022/10/07 14:05:50;;;;;;;6.43;5.50;;;;;26.80;99365.00;;;;16457894;28;20265;-48
2022/10/07 14:13:56;;;;;;;6.30;5.73;;;;;25.80;99356.00;;;;16456360;28;20228;-48
2022/10/07 14:22:00;;;;;;;8.93;7.10;;;;;25.70;99348.00;;;;16450983;28;20747;-49
2022/10/07 14:30:18;;;;;;;6.67;6.00;;;;;26.30;99338.00;;;;16457745;28;20239;-48
2022/10/07 14:38:27;;;;;;;8.83;5.93;;;;;26.20;99326.00;;;;16453619;28;20239;-49
2022/10/07 14:46:31;;;;;;;7.00;5.80;;;;;26.00;99324.00;;;;16450776;28;20213;-48
2022/10/07 14:54:34;;;;;;;8.73;7.00;;;;;25.60;99304.00;;;;16455135;28;20322;-48
2022/10/07 15:02:38;;;;;;;6.33;5.83;;;;;25.90;99306.00;;;;16451105;28;20252;-49
2022/10/07 15:10:41;;;;;;;6.27;5.67;;;;;26.00;99291.00;;;;16454857;28;20197;-49
2022/10/07 15:18:45;;;;;;;5.77;5.27;;;;;25.30;99289.00;;;;16453705;28;20430;-48
2022/10/07 15:26:47;;;;;;;10.20;5.80;;;;;26.10;99286.00;;;;16453649;28;20220;-48
2022/10/07 15:34:54;;;;;;;6.47;5.87;;;;;25.70;99273.00;;;;16464838;28;20219;-47
2022/10/07 15:42:57;;;;;;;11.13;5.77;;;;;25.30;99267.00;;;;16458175;28;20232;-48
2022/10/07 15:51:00;;;;;;;7.93;7.30;;;;;24.80;99264.00;;;;16454489;28;20204;-48
2022/10/07 15:59:03;;;;;;;9.50;8.60;;;;;24.10;99263.00;;;;16466913;28;20227;-48
2022/10/07 16:07:07;;;;;;;8.80;8.00;;;;;24.60;99261.00;;;;16456769;28;20239;-48
2022/10/07 16:15:10;;;;;;;8.60;6.83;;;;;24.20;99246.00;;;;16446676;28;20299;-48
2022/10/07 16:23:14;;;;;;;8.00;7.30;;;;;23.80;99246.00;;;;16448351;28;20298;-48
2022/10/07 16:31:16;;;;;;;6.20;5.70;;;;;23.20;99254.00;;;;16450166;28;20208;-48
2022/10/07 16:39:20;;;;;;;7.73;7.03;;;;;22.20;99247.00;;;;16457543;28;20876;-48
2022/10/07 16:47:23;;;;;;;7.03;6.40;;;;;19.90;99263.00;;;;16451642;28;20303;-48
2022/10/07 16:55:27;;;;;;;7.60;5.90;;;;;18.70;99279.00;;;;16450589;28;20239;-47
2022/10/07 17:03:29;;;;;;;7.03;5.50;;;;;18.40;99272.00;;;;16448737;28;20436;-47
2022/10/07 17:11:35;;;;;;;9.63;7.40;;;;;18.00;99270.00;;;;16458979;28;20208;-47
2022/10/07 17:19:37;;;;;;;10.40;8.43;;;;;17.80;99281.00;;;;16462297;28;20239;-48
2022/10/07 17:27:41;;;;;;;8.83;7.93;;;;;17.90;99278.00;;;;16467038;28;20263;-47
2022/10/07 17:35:44;;;;;;;8.97;7.70;;;;;18.30;99276.00;;;;16465883;28;20228;-48
2022/10/07 17:43:49;;;;;;;15.13;8.80;;;;;17.90;99268.00;;;;16447601;28;20232;-48
2022/10/07 17:51:51;;;;;;;8.37;7.60;;;;;17.40;99275.00;;;;16457535;28;20579;-48
2022/10/07 17:59:55;;;;;;;10.30;8.10;;;;;17.80;99283.00;;;;16457887;28;20224;-48
2022/10/07 18:07:58;;;;;;;9.53;8.57;;;;;17.30;99269.00;;;;16457160;28;20216;-49
2022/10/07 18:16:03;;;;;;;10.73;8.13;;;;;17.10;99272.00;;;;16459114;28;20224;-48
2022/10/07 18:24:08;;;;;;;15.20;11.93;;;;;17.00;99274.00;;;;16454346;28;20228;-48
2022/10/07 18:32:11;;;;;;;9.13;8.33;;;;;17.00;99270.00;;;;16457902;28;20233;-49
2022/10/07 18:40:14;;;;;;;11.00;9.93;;;;;16.80;99261.00;;;;16453697;28;20224;-48
2022/10/07 18:48:18;;;;;;;11.13;9.93;;;;;16.30;99259.00;;;;16456499;28;20211;-48
2022/10/07 18:56:21;;;;;;;12.40;11.20;;;;;16.50;99244.00;;;;16439480;28;20236;-48
2022/10/07 19:04:25;;;;;;;13.00;11.70;;;;;16.70;99244.00;;;;16444639;28;20250;-47
2022/10/07 19:20:57;;;;;;;10.73;9.73;;;;;17.10;99253.00;;;;16454667;28;20259;-48
2022/10/07 19:28:59;;;;;;;11.13;9.50;;;;;17.20;99239.00;;;;16462709;28;20255;-49
2022/10/07 19:37:03;;;;;;;9.93;8.93;;;;;16.80;99241.00;;;;16455352;28;20224;-49
2022/10/07 19:45:08;;;;;;;11.23;10.23;;;;;16.10;99256.00;;;;16457164;28;20235;-48
2022/10/07 19:53:11;;;;;;;11.00;9.90;;;;;16.30;99248.00;;;;16457257;28;20235;-48
2022/10/07 20:01:15;;;;;;;12.20;11.17;;;;;16.30;99251.00;;;;16444443;28;20235;-47
2022/10/07 20:09:19;;;;;;;14.40;12.90;;;;;16.60;99246.00;;;;16445073;28;20275;-48
2022/10/07 20:17:22;;;;;;;11.80;10.77;;;;;16.60;99231.00;;;;16449229;28;20716;-49
2022/10/07 20:25:26;;;;;;;12.40;10.70;;;;;16.70;99236.00;;;;16451664;28;20227;-48
2022/10/07 20:33:29;;;;;;;11.87;10.57;;;;;16.20;99240.00;;;;16448503;28;20343;-48
2022/10/07 20:49:55;;;;;;;14.80;13.37;;;;;17.50;99216.00;;;;16472488;28;20192;-47
2022/10/07 20:57:59;;;;;;;14.80;13.23;;;;;17.80;99211.00;;;;16464074;28;20227;-48
2022/10/07 21:06:02;;;;;;;15.67;14.20;;;;;17.90;99216.00;;;;16470270;28;20209;-48
2022/10/07 21:14:06;;;;;;;12.77;11.47;;;;;17.50;99211.00;;;;16464390;28;20829;-48
2022/10/07 21:22:09;;;;;;;9.83;8.93;;;;;16.50;99206.00;;;;16470210;28;20240;-48
2022/10/07 21:30:13;;;;;;;14.30;12.23;;;;;16.60;99196.00;;;;16469693;28;20196;-48
2022/10/07 21:47:23;;;;;;;16.97;12.13;;;;;16.80;99189.00;;;;16196756;29;20679;-47
2022/10/07 21:55:25;;;;;;;13.03;11.37;;;;;16.40;99184.00;;;;16198863;29;20467;-49
2022/10/07 22:03:29;;;;;;;12.47;11.27;;;;;16.40;99192.00;;;;16197812;29;20234;-48
2022/10/07 22:11:33;;;;;;;13.67;12.27;;;;;16.70;99191.00;;;;16239003;28;20685;-48
2022/10/07 22:19:36;;;;;;;14.13;12.77;;;;;16.10;99198.00;;;;16465230;28;20232;-48
2022/10/07 22:27:39;;;;;;;17.70;15.97;;;;;16.50;99187.00;;;;16462920;28;20311;-48
2022/10/07 22:35:42;;;;;;;18.23;16.30;;;;;17.70;99177.00;;;;16466905;28;20236;-48
2022/10/07 22:43:46;;;;;;;21.70;16.30;;;;;17.50;99175.00;;;;16468532;28;20766;-48
2022/10/07 22:51:50;;;;;;;16.33;14.70;;;;;17.00;99168.00;;;;16460818;28;20831;-47
2022/10/07 22:59:52;;;;;;;14.27;12.83;;;;;16.90;99152.00;;;;16461338;28;20220;-47
2022/10/07 23:07:56;;;;;;;17.20;15.50;;;;;17.30;99143.00;;;;16463805;28;20219;-48
2022/10/07 23:16:00;;;;;;;14.57;12.50;;;;;16.60;99152.00;;;;16465013;28;20598;-47
2022/10/07 23:24:04;;;;;;;16.10;14.50;;;;;17.30;99144.00;;;;16464533;28;20603;-48
2022/10/07 23:32:06;;;;;;;20.30;15.07;;;;;17.40;99150.00;;;;16460365;28;20963;-48
2022/10/07 23:40:11;;;;;;;20.33;17.03;;;;;16.90;99147.00;;;;16456029;28;20428;-48
2022/10/07 23:48:14;;;;;;;18.53;16.73;;;;;17.00;99139.00;;;;16461575;28;20231;-47
2022/10/07 23:56:18;;;;;;;19.37;17.53;;;;;17.00;99149.00;;;;16453452;28;20239;-48
